Terminal Aerodrome Forecast
Issued by NWS Sterling, VA

Current Version | Previous Version | Graphics & Text | Print | Product List | Glossary On
Versions: 1 2 3 4 5 6 7 8 9 10 11 12 13 14 15 16 17 18 19 20 21 22 23 24 25 26 27 28 29 30
000
FTUS41 KLWX 251333 AAA
TAFDCA
TAF AMD
KDCA 251333Z 2514/2612 VRB04KT 5SM -DZ BKN008 OVC015
     FM251600 19008KT P6SM BKN030
     FM251800 20009KT P6SM -SHRA VCTS BKN045CB
     FM252300 22010KT P6SM -SHRA BKN045
     FM260000 23009KT P6SM BKN045=

USA.gov is the U.S. government's official web portal to all federal, state and local government web resources and services.